sensor_id;sensor_type;location;lat;lon;timestamp;P1;durP1;ratioP1;P2;durP2;ratioP2
28481;SDS011;15703;49.588;6.260;2023-06-04T00:00:22;3.27;;;2.43;;
28481;SDS011;15703;49.588;6.260;2023-06-04T00:02:44;2.83;;;2.07;;
28481;SDS011;15703;49.588;6.260;2023-06-04T00:05:07;3.50;;;2.50;;
28481;SDS011;15703;49.588;6.260;2023-06-04T00:07:29;2.60;;;1.90;;
28481;SDS011;15703;49.588;6.260;2023-06-04T00:09:52;2.10;;;1.90;;
28481;SDS011;15703;49.588;6.260;2023-06-04T00:12:15;4.27;;;2.23;;
28481;SDS011;15703;49.588;6.260;2023-06-04T00:14:38;2.90;;;2.33;;
28481;SDS011;15703;49.588;6.260;2023-06-04T00:17:01;2.23;;;1.90;;
28481;SDS011;15703;49.588;6.260;2023-06-04T00:19:23;3.33;;;1.97;;
28481;SDS011;15703;49.588;6.260;2023-06-04T00:21:46;4.63;;;2.20;;
28481;SDS011;15703;49.588;6.260;2023-06-04T00:24:08;7.10;;;2.10;;
28481;SDS011;15703;49.588;6.260;2023-06-04T00:26:33;5.10;;;2.17;;
28481;SDS011;15703;49.588;6.260;2023-06-04T00:28:59;4.33;;;2.00;;
28481;SDS011;15703;49.588;6.260;2023-06-04T00:31:22;4.00;;;2.13;;
28481;SDS011;15703;49.588;6.260;2023-06-04T00:33:45;2.60;;;2.10;;
28481;SDS011;15703;49.588;6.260;2023-06-04T00:36:07;3.37;;;2.10;;
28481;SDS011;15703;49.588;6.260;2023-06-04T00:38:30;4.60;;;1.80;;
28481;SDS011;15703;49.588;6.260;2023-06-04T00:40:52;2.20;;;2.00;;
28481;SDS011;15703;49.588;6.260;2023-06-04T00:43:15;3.23;;;2.17;;
28481;SDS011;15703;49.588;6.260;2023-06-04T00:45:37;4.47;;;1.80;;
28481;SDS011;15703;49.588;6.260;2023-06-04T00:48:00;3.93;;;2.27;;
28481;SDS011;15703;49.588;6.260;2023-06-04T00:50:23;3.30;;;2.27;;
28481;SDS011;15703;49.588;6.260;2023-06-04T00:52:46;3.43;;;2.33;;
28481;SDS011;15703;49.588;6.260;2023-06-04T00:55:09;2.17;;;1.97;;
28481;SDS011;15703;49.588;6.260;2023-06-04T00:57:32;2.63;;;2.03;;
28481;SDS011;15703;49.588;6.260;2023-06-04T00:59:54;3.67;;;2.10;;
28481;SDS011;15703;49.588;6.260;2023-06-04T01:02:18;2.27;;;1.93;;
28481;SDS011;15703;49.588;6.260;2023-06-04T01:07:13;3.70;;;2.00;;
28481;SDS011;15703;49.588;6.260;2023-06-04T01:09:36;3.20;;;1.87;;
28481;SDS011;15703;49.588;6.260;2023-06-04T01:11:59;1.77;;;1.67;;
28481;SDS011;15703;49.588;6.260;2023-06-04T01:14:23;3.13;;;2.20;;
28481;SDS011;15703;49.588;6.260;2023-06-04T01:16:49;2.30;;;1.83;;
28481;SDS011;15703;49.588;6.260;2023-06-04T01:19:22;2.67;;;1.80;;
28481;SDS011;15703;49.588;6.260;2023-06-04T01:21:53;5.37;;;2.10;;
28481;SDS011;15703;49.588;6.260;2023-06-04T01:24:18;1.90;;;1.80;;
28481;SDS011;15703;49.588;6.260;2023-06-04T01:26:43;1.83;;;1.73;;
28481;SDS011;15703;49.588;6.260;2023-06-04T01:29:06;2.07;;;1.70;;
28481;SDS011;15703;49.588;6.260;2023-06-04T01:31:28;1.80;;;1.70;;
28481;SDS011;15703;49.588;6.260;2023-06-04T01:33:55;2.00;;;1.90;;
28481;SDS011;15703;49.588;6.260;2023-06-04T01:36:19;2.97;;;1.80;;
28481;SDS011;15703;49.588;6.260;2023-06-04T01:38:41;2.13;;;1.93;;
28481;SDS011;15703;49.588;6.260;2023-06-04T01:41:04;2.33;;;1.90;;
28481;SDS011;15703;49.588;6.260;2023-06-04T01:43:27;3.53;;;1.67;;
28481;SDS011;15703;49.588;6.260;2023-06-04T01:45:50;1.90;;;1.70;;
28481;SDS011;15703;49.588;6.260;2023-06-04T01:48:12;3.57;;;2.00;;
28481;SDS011;15703;49.588;6.260;2023-06-04T01:50:34;3.77;;;2.07;;
28481;SDS011;15703;49.588;6.260;2023-06-04T01:52:57;2.43;;;2.03;;
28481;SDS011;15703;49.588;6.260;2023-06-04T01:55:20;2.93;;;1.70;;
28481;SDS011;15703;49.588;6.260;2023-06-04T01:57:43;3.27;;;2.20;;
28481;SDS011;15703;49.588;6.260;2023-06-04T02:00:06;2.63;;;1.97;;
28481;SDS011;15703;49.588;6.260;2023-06-04T02:02:36;3.10;;;2.20;;
28481;SDS011;15703;49.588;6.260;2023-06-04T02:04:59;1.93;;;1.83;;
28481;SDS011;15703;49.588;6.260;2023-06-04T02:07:21;3.10;;;1.87;;
28481;SDS011;15703;49.588;6.260;2023-06-04T02:09:44;2.13;;;1.90;;
28481;SDS011;15703;49.588;6.260;2023-06-04T02:12:06;2.43;;;1.97;;
28481;SDS011;15703;49.588;6.260;2023-06-04T02:14:32;2.70;;;2.20;;
28481;SDS011;15703;49.588;6.260;2023-06-04T02:16:55;1.87;;;1.77;;
28481;SDS011;15703;49.588;6.260;2023-06-04T02:19:19;1.93;;;1.73;;
28481;SDS011;15703;49.588;6.260;2023-06-04T02:21:41;1.90;;;1.70;;
28481;SDS011;15703;49.588;6.260;2023-06-04T02:24:04;1.67;;;1.57;;
28481;SDS011;15703;49.588;6.260;2023-06-04T02:26:27;3.43;;;1.60;;
28481;SDS011;15703;49.588;6.260;2023-06-04T02:28:49;3.90;;;2.10;;
28481;SDS011;15703;49.588;6.260;2023-06-04T02:31:12;1.87;;;1.77;;
28481;SDS011;15703;49.588;6.260;2023-06-04T02:33:34;3.27;;;2.33;;
28481;SDS011;15703;49.588;6.260;2023-06-04T02:35:56;1.80;;;1.70;;
28481;SDS011;15703;49.588;6.260;2023-06-04T02:38:19;2.80;;;2.13;;
28481;SDS011;15703;49.588;6.260;2023-06-04T02:40:42;1.90;;;1.80;;
28481;SDS011;15703;49.588;6.260;2023-06-04T02:43:05;1.67;;;1.57;;
28481;SDS011;15703;49.588;6.260;2023-06-04T02:45:28;2.83;;;1.97;;
28481;SDS011;15703;49.588;6.260;2023-06-04T02:47:50;2.00;;;1.90;;
28481;SDS011;15703;49.588;6.260;2023-06-04T02:50:13;3.80;;;1.70;;
28481;SDS011;15703;49.588;6.260;2023-06-04T02:52:39;2.67;;;1.80;;
28481;SDS011;15703;49.588;6.260;2023-06-04T02:55:05;2.20;;;1.87;;
28481;SDS011;15703;49.588;6.260;2023-06-04T02:57:28;2.50;;;1.73;;
28481;SDS011;15703;49.588;6.260;2023-06-04T02:59:51;1.80;;;1.70;;
28481;SDS011;15703;49.588;6.260;2023-06-04T03:02:15;1.70;;;1.60;;
28481;SDS011;15703;49.588;6.260;2023-06-04T03:04:37;4.70;;;1.87;;
28481;SDS011;15703;49.588;6.260;2023-06-04T03:07:02;2.80;;;1.77;;
28481;SDS011;15703;49.588;6.260;2023-06-04T03:09:25;1.83;;;1.73;;
28481;SDS011;15703;49.588;6.260;2023-06-04T03:11:47;2.83;;;1.90;;
28481;SDS011;15703;49.588;6.260;2023-06-04T03:14:10;2.67;;;1.90;;
28481;SDS011;15703;49.588;6.260;2023-06-04T03:16:32;2.13;;;1.90;;
28481;SDS011;15703;49.588;6.260;2023-06-04T03:18:54;2.53;;;2.00;;
28481;SDS011;15703;49.588;6.260;2023-06-04T03:21:18;2.20;;;2.00;;
28481;SDS011;15703;49.588;6.260;2023-06-04T03:23:41;3.43;;;1.90;;
28481;SDS011;15703;49.588;6.260;2023-06-04T03:26:04;3.00;;;1.83;;
28481;SDS011;15703;49.588;6.260;2023-06-04T03:28:27;2.20;;;2.00;;
28481;SDS011;15703;49.588;6.260;2023-06-04T03:30:49;1.80;;;1.70;;
28481;SDS011;15703;49.588;6.260;2023-06-04T03:33:14;2.40;;;1.80;;
28481;SDS011;15703;49.588;6.260;2023-06-04T03:35:36;3.37;;;2.20;;
28481;SDS011;15703;49.588;6.260;2023-06-04T03:37:59;2.07;;;1.87;;
28481;SDS011;15703;49.588;6.260;2023-06-04T03:40:23;3.67;;;2.00;;
28481;SDS011;15703;49.588;6.260;2023-06-04T03:42:46;3.40;;;2.03;;
28481;SDS011;15703;49.588;6.260;2023-06-04T03:45:10;3.40;;;2.00;;
28481;SDS011;15703;49.588;6.260;2023-06-04T03:47:32;2.00;;;1.80;;
28481;SDS011;15703;49.588;6.260;2023-06-04T03:49:56;2.90;;;1.87;;
28481;SDS011;15703;49.588;6.260;2023-06-04T03:52:19;2.37;;;2.17;;
28481;SDS011;15703;49.588;6.260;2023-06-04T03:54:41;3.10;;;1.60;;
28481;SDS011;15703;49.588;6.260;2023-06-04T03:57:04;2.60;;;1.90;;
28481;SDS011;15703;49.588;6.260;2023-06-04T03:59:26;4.43;;;2.00;;
28481;SDS011;15703;49.588;6.260;2023-06-04T04:01:49;2.57;;;1.60;;
28481;SDS011;15703;49.588;6.260;2023-06-04T04:04:11;3.40;;;2.20;;
28481;SDS011;15703;49.588;6.260;2023-06-04T04:06:33;2.83;;;1.80;;
28481;SDS011;15703;49.588;6.260;2023-06-04T04:08:56;3.43;;;1.90;;
28481;SDS011;15703;49.588;6.260;2023-06-04T04:11:20;2.47;;;1.70;;
28481;SDS011;15703;49.588;6.260;2023-06-04T04:13:44;4.60;;;2.10;;
28481;SDS011;15703;49.588;6.260;2023-06-04T04:16:08;6.80;;;1.93;;
28481;SDS011;15703;49.588;6.260;2023-06-04T04:18:32;2.77;;;1.67;;
28481;SDS011;15703;49.588;6.260;2023-06-04T04:21:04;3.90;;;1.63;;
28481;SDS011;15703;49.588;6.260;2023-06-04T04:23:53;2.90;;;1.70;;
28481;SDS011;15703;49.588;6.260;2023-06-04T04:26:26;2.87;;;1.30;;
28481;SDS011;15703;49.588;6.260;2023-06-04T04:28:50;2.45;;;1.50;;
28481;SDS011;15703;49.588;6.260;2023-06-04T04:31:22;1.40;;;1.20;;
28481;SDS011;15703;49.588;6.260;2023-06-04T04:37:34;2.85;;;1.40;;
28481;SDS011;15703;49.588;6.260;2023-06-04T04:40:52;1.92;;;1.08;;
28481;SDS011;15703;49.588;6.260;2023-06-04T04:43:31;1.70;;;1.17;;
28481;SDS011;15703;49.588;6.260;2023-06-04T04:46:00;2.25;;;1.23;;
28481;SDS011;15703;49.588;6.260;2023-06-04T04:48:23;2.08;;;1.30;;
28481;SDS011;15703;49.588;6.260;2023-06-04T04:50:46;1.65;;;1.40;;
28481;SDS011;15703;49.588;6.260;2023-06-04T04:53:09;2.10;;;1.00;;
28481;SDS011;15703;49.588;6.260;2023-06-04T04:55:32;1.75;;;0.95;;
28481;SDS011;15703;49.588;6.260;2023-06-04T04:57:55;2.20;;;1.10;;
28481;SDS011;15703;49.588;6.260;2023-06-04T05:00:18;1.50;;;1.35;;
28481;SDS011;15703;49.588;6.260;2023-06-04T05:02:45;1.98;;;1.20;;
28481;SDS011;15703;49.588;6.260;2023-06-04T05:05:08;1.95;;;1.10;;
28481;SDS011;15703;49.588;6.260;2023-06-04T05:07:32;2.33;;;1.15;;
28481;SDS011;15703;49.588;6.260;2023-06-04T05:09:54;2.35;;;1.40;;
28481;SDS011;15703;49.588;6.260;2023-06-04T05:12:17;2.60;;;1.25;;
28481;SDS011;15703;49.588;6.260;2023-06-04T05:14:40;1.80;;;0.90;;
28481;SDS011;15703;49.588;6.260;2023-06-04T05:17:07;1.13;;;1.00;;
28481;SDS011;15703;49.588;6.260;2023-06-04T05:19:33;3.75;;;1.27;;
28481;SDS011;15703;49.588;6.260;2023-06-04T05:21:59;1.42;;;1.17;;
28481;SDS011;15703;49.588;6.260;2023-06-04T05:24:22;1.08;;;0.70;;
28481;SDS011;15703;49.588;6.260;2023-06-04T05:26:45;1.77;;;0.95;;
28481;SDS011;15703;49.588;6.260;2023-06-04T05:29:13;2.35;;;0.98;;
28481;SDS011;15703;49.588;6.260;2023-06-04T05:31:37;1.80;;;1.10;;
28481;SDS011;15703;49.588;6.260;2023-06-04T05:34:03;1.35;;;1.20;;
28481;SDS011;15703;49.588;6.260;2023-06-04T05:36:28;2.83;;;0.90;;
28481;SDS011;15703;49.588;6.260;2023-06-04T05:38:54;3.75;;;1.00;;
28481;SDS011;15703;49.588;6.260;2023-06-04T05:41:28;3.03;;;1.10;;
28481;SDS011;15703;49.588;6.260;2023-06-04T05:43:51;1.88;;;1.15;;
28481;SDS011;15703;49.588;6.260;2023-06-04T05:46:14;2.20;;;0.90;;
28481;SDS011;15703;49.588;6.260;2023-06-04T05:48:39;1.88;;;1.00;;
28481;SDS011;15703;49.588;6.260;2023-06-04T05:51:01;3.95;;;1.10;;
28481;SDS011;15703;49.588;6.260;2023-06-04T05:53:24;2.50;;;1.45;;
28481;SDS011;15703;49.588;6.260;2023-06-04T05:55:47;1.05;;;0.95;;
28481;SDS011;15703;49.588;6.260;2023-06-04T05:58:10;2.25;;;0.98;;
28481;SDS011;15703;49.588;6.260;2023-06-04T06:00:35;1.33;;;0.85;;
28481;SDS011;15703;49.588;6.260;2023-06-04T06:03:00;1.15;;;0.93;;
28481;SDS011;15703;49.588;6.260;2023-06-04T06:05:34;2.67;;;1.10;;
28481;SDS011;15703;49.588;6.260;2023-06-04T06:07:59;2.17;;;1.02;;
28481;SDS011;15703;49.588;6.260;2023-06-04T06:10:23;0.93;;;0.82;;
28481;SDS011;15703;49.588;6.260;2023-06-04T06:12:45;0.85;;;0.82;;
28481;SDS011;15703;49.588;6.260;2023-06-04T06:15:08;2.92;;;1.00;;
28481;SDS011;15703;49.588;6.260;2023-06-04T06:17:35;2.05;;;1.00;;
28481;SDS011;15703;49.588;6.260;2023-06-04T06:19:57;1.98;;;1.05;;
28481;SDS011;15703;49.588;6.260;2023-06-04T06:22:20;2.38;;;1.10;;
28481;SDS011;15703;49.588;6.260;2023-06-04T06:24:44;1.45;;;1.00;;
28481;SDS011;15703;49.588;6.260;2023-06-04T06:27:12;1.42;;;0.93;;
28481;SDS011;15703;49.588;6.260;2023-06-04T06:29:35;2.45;;;0.98;;
28481;SDS011;15703;49.588;6.260;2023-06-04T06:31:57;1.42;;;0.65;;
28481;SDS011;15703;49.588;6.260;2023-06-04T06:34:20;4.03;;;1.40;;
28481;SDS011;15703;49.588;6.260;2023-06-04T06:36:43;2.17;;;0.90;;
28481;SDS011;15703;49.588;6.260;2023-06-04T06:39:05;1.65;;;1.00;;
28481;SDS011;15703;49.588;6.260;2023-06-04T06:41:28;2.90;;;1.10;;
28481;SDS011;15703;49.588;6.260;2023-06-04T06:43:52;3.08;;;1.10;;
28481;SDS011;15703;49.588;6.260;2023-06-04T06:46:15;2.80;;;1.00;;
28481;SDS011;15703;49.588;6.260;2023-06-04T06:48:37;5.55;;;1.33;;
28481;SDS011;15703;49.588;6.260;2023-06-04T06:51:09;1.23;;;0.95;;
28481;SDS011;15703;49.588;6.260;2023-06-04T06:53:31;1.88;;;1.02;;
28481;SDS011;15703;49.588;6.260;2023-06-04T06:55:54;1.45;;;0.95;;
28481;SDS011;15703;49.588;6.260;2023-06-04T06:58:21;1.80;;;1.00;;
28481;SDS011;15703;49.588;6.260;2023-06-04T07:00:44;2.60;;;0.90;;
28481;SDS011;15703;49.588;6.260;2023-06-04T07:03:10;1.15;;;0.93;;
28481;SDS011;15703;49.588;6.260;2023-06-04T07:05:33;2.78;;;1.10;;
28481;SDS011;15703;49.588;6.260;2023-06-04T07:07:55;1.75;;;0.80;;
28481;SDS011;15703;49.588;6.260;2023-06-04T07:10:25;1.63;;;1.10;;
28481;SDS011;15703;49.588;6.260;2023-06-04T07:12:48;3.00;;;1.20;;
28481;SDS011;15703;49.588;6.260;2023-06-04T07:15:11;2.47;;;0.98;;
28481;SDS011;15703;49.588;6.260;2023-06-04T07:17:34;2.30;;;1.05;;
28481;SDS011;15703;49.588;6.260;2023-06-04T07:19:56;1.98;;;1.10;;
28481;SDS011;15703;49.588;6.260;2023-06-04T07:22:18;3.70;;;0.80;;
28481;SDS011;15703;49.588;6.260;2023-06-04T07:24:41;4.47;;;1.15;;
28481;SDS011;15703;49.588;6.260;2023-06-04T07:27:09;2.78;;;1.23;;
28481;SDS011;15703;49.588;6.260;2023-06-04T07:29:33;2.70;;;0.95;;
28481;SDS011;15703;49.588;6.260;2023-06-04T07:31:55;1.10;;;1.00;;
28481;SDS011;15703;49.588;6.260;2023-06-04T07:34:17;5.00;;;1.42;;
28481;SDS011;15703;49.588;6.260;2023-06-04T07:36:40;3.85;;;1.10;;
28481;SDS011;15703;49.588;6.260;2023-06-04T07:39:02;1.30;;;0.73;;
28481;SDS011;15703;49.588;6.260;2023-06-04T07:41:27;1.00;;;0.90;;
28481;SDS011;15703;49.588;6.260;2023-06-04T07:43:50;0.88;;;0.80;;
28481;SDS011;15703;49.588;6.260;2023-06-04T07:46:12;1.75;;;1.08;;
28481;SDS011;15703;49.588;6.260;2023-06-04T07:48:35;2.33;;;1.13;;
28481;SDS011;15703;49.588;6.260;2023-06-04T07:50:57;3.58;;;1.20;;
28481;SDS011;15703;49.588;6.260;2023-06-04T07:53:20;1.52;;;0.80;;
28481;SDS011;15703;49.588;6.260;2023-06-04T07:55:42;2.55;;;0.73;;
28481;SDS011;15703;49.588;6.260;2023-06-04T07:58:05;4.90;;;1.23;;
28481;SDS011;15703;49.588;6.260;2023-06-04T08:00:27;3.97;;;1.00;;
28481;SDS011;15703;49.588;6.260;2023-06-04T08:02:50;2.53;;;1.30;;
28481;SDS011;15703;49.588;6.260;2023-06-04T08:05:14;2.58;;;1.10;;
28481;SDS011;15703;49.588;6.260;2023-06-04T08:07:36;2.38;;;1.00;;
28481;SDS011;15703;49.588;6.260;2023-06-04T08:09:59;3.20;;;1.00;;
28481;SDS011;15703;49.588;6.260;2023-06-04T08:12:22;2.75;;;1.05;;
28481;SDS011;15703;49.588;6.260;2023-06-04T08:14:44;3.33;;;0.90;;
28481;SDS011;15703;49.588;6.260;2023-06-04T08:17:07;1.75;;;0.80;;
28481;SDS011;15703;49.588;6.260;2023-06-04T08:19:29;1.38;;;0.95;;
28481;SDS011;15703;49.588;6.260;2023-06-04T08:21:51;4.57;;;1.23;;
28481;SDS011;15703;49.588;6.260;2023-06-04T08:24:14;1.67;;;0.80;;
28481;SDS011;15703;49.588;6.260;2023-06-04T08:26:36;3.03;;;0.95;;
28481;SDS011;15703;49.588;6.260;2023-06-04T08:29:02;2.38;;;1.00;;
28481;SDS011;15703;49.588;6.260;2023-06-04T08:31:28;1.95;;;1.10;;
28481;SDS011;15703;49.588;6.260;2023-06-04T08:33:51;1.20;;;0.88;;
28481;SDS011;15703;49.588;6.260;2023-06-04T08:36:14;1.38;;;0.82;;
28481;SDS011;15703;49.588;6.260;2023-06-04T08:38:37;2.15;;;1.00;;
28481;SDS011;15703;49.588;6.260;2023-06-04T08:41:24;2.38;;;1.27;;
28481;SDS011;15703;49.588;6.260;2023-06-04T08:43:44;1.38;;;0.98;;
28481;SDS011;15703;49.588;6.260;2023-06-04T08:46:06;1.15;;;0.80;;
28481;SDS011;15703;49.588;6.260;2023-06-04T08:48:30;2.22;;;0.95;;
28481;SDS011;15703;49.588;6.260;2023-06-04T08:50:52;3.55;;;1.13;;
28481;SDS011;15703;49.588;6.260;2023-06-04T08:53:16;1.63;;;0.90;;
28481;SDS011;15703;49.588;6.260;2023-06-04T08:55:39;2.28;;;1.10;;
28481;SDS011;15703;49.588;6.260;2023-06-04T08:58:02;3.47;;;1.27;;
28481;SDS011;15703;49.588;6.260;2023-06-04T09:00:29;2.03;;;1.20;;
28481;SDS011;15703;49.588;6.260;2023-06-04T09:02:52;1.20;;;1.10;;
28481;SDS011;15703;49.588;6.260;2023-06-04T09:05:24;2.03;;;1.08;;
28481;SDS011;15703;49.588;6.260;2023-06-04T09:07:47;3.35;;;1.08;;
28481;SDS011;15703;49.588;6.260;2023-06-04T09:10:17;3.45;;;1.35;;
28481;SDS011;15703;49.588;6.260;2023-06-04T09:12:45;2.15;;;0.90;;
28481;SDS011;15703;49.588;6.260;2023-06-04T09:15:18;5.65;;;1.08;;
28481;SDS011;15703;49.588;6.260;2023-06-04T09:17:43;2.67;;;1.17;;
28481;SDS011;15703;49.588;6.260;2023-06-04T09:20:06;2.45;;;1.20;;
28481;SDS011;15703;49.588;6.260;2023-06-04T09:22:33;2.35;;;0.88;;
28481;SDS011;15703;49.588;6.260;2023-06-04T09:24:56;1.73;;;1.13;;
28481;SDS011;15703;49.588;6.260;2023-06-04T09:27:19;2.40;;;1.00;;
28481;SDS011;15703;49.588;6.260;2023-06-04T09:29:50;3.80;;;1.13;;
28481;SDS011;15703;49.588;6.260;2023-06-04T09:32:13;4.35;;;1.20;;
28481;SDS011;15703;49.588;6.260;2023-06-04T09:34:35;3.67;;;1.92;;
28481;SDS011;15703;49.588;6.260;2023-06-04T09:37:13;3.13;;;1.20;;
28481;SDS011;15703;49.588;6.260;2023-06-04T09:39:37;3.15;;;1.02;;
28481;SDS011;15703;49.588;6.260;2023-06-04T09:42:05;2.65;;;1.13;;
28481;SDS011;15703;49.588;6.260;2023-06-04T09:44:29;1.90;;;1.20;;
28481;SDS011;15703;49.588;6.260;2023-06-04T09:46:53;1.75;;;1.30;;
28481;SDS011;15703;49.588;6.260;2023-06-04T09:49:15;0.80;;;0.80;;
28481;SDS011;15703;49.588;6.260;2023-06-04T09:51:46;3.58;;;1.27;;
28481;SDS011;15703;49.588;6.260;2023-06-04T09:54:08;1.95;;;1.10;;
28481;SDS011;15703;49.588;6.260;2023-06-04T09:56:38;1.92;;;1.05;;
28481;SDS011;15703;49.588;6.260;2023-06-04T09:59:01;2.85;;;1.50;;
28481;SDS011;15703;49.588;6.260;2023-06-04T10:01:25;4.82;;;1.50;;
28481;SDS011;15703;49.588;6.260;2023-06-04T10:03:48;3.55;;;1.38;;
28481;SDS011;15703;49.588;6.260;2023-06-04T10:06:13;1.63;;;0.98;;
28481;SDS011;15703;49.588;6.260;2023-06-04T10:08:39;1.85;;;1.25;;
28481;SDS011;15703;49.588;6.260;2023-06-04T10:11:03;3.67;;;1.15;;
28481;SDS011;15703;49.588;6.260;2023-06-04T10:13:29;1.77;;;1.15;;
28481;SDS011;15703;49.588;6.260;2023-06-04T10:15:52;1.85;;;1.20;;
28481;SDS011;15703;49.588;6.260;2023-06-04T10:18:15;3.33;;;1.20;;
28481;SDS011;15703;49.588;6.260;2023-06-04T10:20:38;1.92;;;1.15;;
28481;SDS011;15703;49.588;6.260;2023-06-04T10:23:01;2.22;;;1.40;;
28481;SDS011;15703;49.588;6.260;2023-06-04T10:25:26;2.65;;;2.00;;
28481;SDS011;15703;49.588;6.260;2023-06-04T10:27:50;5.72;;;3.47;;
28481;SDS011;15703;49.588;6.260;2023-06-04T10:30:16;1.38;;;1.25;;
28481;SDS011;15703;49.588;6.260;2023-06-04T10:32:39;7.50;;;1.90;;
28481;SDS011;15703;49.588;6.260;2023-06-04T10:35:03;2.40;;;1.00;;
28481;SDS011;15703;49.588;6.260;2023-06-04T10:37:26;1.70;;;1.58;;
28481;SDS011;15703;49.588;6.260;2023-06-04T10:39:51;3.17;;;1.35;;
28481;SDS011;15703;49.588;6.260;2023-06-04T10:42:14;2.17;;;1.25;;
28481;SDS011;15703;49.588;6.260;2023-06-04T10:44:45;1.65;;;1.02;;
28481;SDS011;15703;49.588;6.260;2023-06-04T10:47:17;2.60;;;1.55;;
28481;SDS011;15703;49.588;6.260;2023-06-04T10:49:40;1.50;;;1.10;;
28481;SDS011;15703;49.588;6.260;2023-06-04T10:52:09;1.48;;;1.05;;
28481;SDS011;15703;49.588;6.260;2023-06-04T10:54:32;2.42;;;1.20;;
28481;SDS011;15703;49.588;6.260;2023-06-04T10:56:55;3.08;;;1.77;;
28481;SDS011;15703;49.588;6.260;2023-06-04T10:59:17;2.15;;;1.70;;
28481;SDS011;15703;49.588;6.260;2023-06-04T11:01:40;2.70;;;1.20;;
28481;SDS011;15703;49.588;6.260;2023-06-04T11:04:03;3.42;;;1.20;;
28481;SDS011;15703;49.588;6.260;2023-06-04T11:06:26;3.08;;;1.25;;
28481;SDS011;15703;49.588;6.260;2023-06-04T11:08:49;2.35;;;1.65;;
28481;SDS011;15703;49.588;6.260;2023-06-04T11:11:12;4.05;;;1.10;;
28481;SDS011;15703;49.588;6.260;2023-06-04T11:13:37;3.58;;;1.10;;
28481;SDS011;15703;49.588;6.260;2023-06-04T11:16:00;5.15;;;1.38;;
28481;SDS011;15703;49.588;6.260;2023-06-04T11:18:22;1.33;;;1.23;;
28481;SDS011;15703;49.588;6.260;2023-06-04T11:20:49;5.43;;;1.88;;
28481;SDS011;15703;49.588;6.260;2023-06-04T11:23:14;4.88;;;1.30;;
28481;SDS011;15703;49.588;6.260;2023-06-04T11:25:37;4.38;;;1.30;;
28481;SDS011;15703;49.588;6.260;2023-06-04T11:27:59;2.40;;;1.27;;
28481;SDS011;15703;49.588;6.260;2023-06-04T11:30:23;2.13;;;1.30;;
28481;SDS011;15703;49.588;6.260;2023-06-04T11:32:45;2.45;;;1.38;;
28481;SDS011;15703;49.588;6.260;2023-06-04T11:35:08;2.95;;;1.63;;
28481;SDS011;15703;49.588;6.260;2023-06-04T11:37:32;2.38;;;1.30;;
28481;SDS011;15703;49.588;6.260;2023-06-04T11:39:55;1.73;;;1.38;;
28481;SDS011;15703;49.588;6.260;2023-06-04T11:42:17;2.05;;;1.00;;
28481;SDS011;15703;49.588;6.260;2023-06-04T11:44:40;4.63;;;1.33;;
28481;SDS011;15703;49.588;6.260;2023-06-04T11:47:07;3.08;;;1.42;;
28481;SDS011;15703;49.588;6.260;2023-06-04T11:49:30;3.78;;;1.67;;
28481;SDS011;15703;49.588;6.260;2023-06-04T11:51:52;3.10;;;1.25;;
28481;SDS011;15703;49.588;6.260;2023-06-04T11:54:16;4.72;;;1.08;;
28481;SDS011;15703;49.588;6.260;2023-06-04T11:56:39;3.13;;;1.60;;
28481;SDS011;15703;49.588;6.260;2023-06-04T11:59:01;3.30;;;1.15;;
28481;SDS011;15703;49.588;6.260;2023-06-04T12:01:23;3.92;;;1.58;;
28481;SDS011;15703;49.588;6.260;2023-06-04T12:03:50;2.25;;;1.30;;
28481;SDS011;15703;49.588;6.260;2023-06-04T12:06:13;2.25;;;1.30;;
28481;SDS011;15703;49.588;6.260;2023-06-04T12:08:47;4.57;;;1.20;;
28481;SDS011;15703;49.588;6.260;2023-06-04T12:11:09;1.50;;;1.20;;
28481;SDS011;15703;49.588;6.260;2023-06-04T12:13:36;2.53;;;1.33;;
28481;SDS011;15703;49.588;6.260;2023-06-04T12:15:59;3.78;;;1.50;;
28481;SDS011;15703;49.588;6.260;2023-06-04T12:18:25;2.78;;;1.33;;
28481;SDS011;15703;49.588;6.260;2023-06-04T12:20:47;4.80;;;1.80;;
28481;SDS011;15703;49.588;6.260;2023-06-04T12:23:19;1.40;;;1.17;;
28481;SDS011;15703;49.588;6.260;2023-06-04T12:25:42;1.23;;;1.10;;
28481;SDS011;15703;49.588;6.260;2023-06-04T12:28:04;3.45;;;0.98;;
28481;SDS011;15703;49.588;6.260;2023-06-04T12:30:40;1.77;;;1.30;;
28481;SDS011;15703;49.588;6.260;2023-06-04T12:33:02;2.35;;;1.40;;
28481;SDS011;15703;49.588;6.260;2023-06-04T12:35:25;1.40;;;0.95;;
28481;SDS011;15703;49.588;6.260;2023-06-04T12:37:47;2.00;;;1.40;;
28481;SDS011;15703;49.588;6.260;2023-06-04T12:40:09;2.60;;;1.30;;
28481;SDS011;15703;49.588;6.260;2023-06-04T12:42:32;3.03;;;1.55;;
28481;SDS011;15703;49.588;6.260;2023-06-04T12:44:55;1.30;;;1.20;;
28481;SDS011;15703;49.588;6.260;2023-06-04T12:47:17;3.45;;;1.60;;
28481;SDS011;15703;49.588;6.260;2023-06-04T12:49:40;3.65;;;1.35;;
28481;SDS011;15703;49.588;6.260;2023-06-04T12:52:02;1.85;;;1.20;;
28481;SDS011;15703;49.588;6.260;2023-06-04T12:54:25;2.70;;;1.35;;
28481;SDS011;15703;49.588;6.260;2023-06-04T12:56:48;3.35;;;1.70;;
28481;SDS011;15703;49.588;6.260;2023-06-04T12:59:11;1.75;;;1.20;;
28481;SDS011;15703;49.588;6.260;2023-06-04T13:01:34;2.65;;;1.48;;
28481;SDS011;15703;49.588;6.260;2023-06-04T13:03:58;1.98;;;1.30;;
28481;SDS011;15703;49.588;6.260;2023-06-04T13:06:21;1.75;;;1.50;;
28481;SDS011;15703;49.588;6.260;2023-06-04T13:08:43;2.90;;;1.70;;
28481;SDS011;15703;49.588;6.260;2023-06-04T13:11:06;2.78;;;1.70;;
28481;SDS011;15703;49.588;6.260;2023-06-04T13:13:29;2.72;;;1.48;;
28481;SDS011;15703;49.588;6.260;2023-06-04T13:15:52;2.20;;;1.90;;
28481;SDS011;15703;49.588;6.260;2023-06-04T13:18:14;3.53;;;1.45;;
28481;SDS011;15703;49.588;6.260;2023-06-04T13:20:36;3.90;;;1.55;;
28481;SDS011;15703;49.588;6.260;2023-06-04T13:22:59;2.63;;;1.35;;
28481;SDS011;15703;49.588;6.260;2023-06-04T13:25:21;3.85;;;1.77;;
28481;SDS011;15703;49.588;6.260;2023-06-04T13:27:44;2.90;;;1.70;;
28481;SDS011;15703;49.588;6.260;2023-06-04T13:30:06;2.47;;;1.35;;
28481;SDS011;15703;49.588;6.260;2023-06-04T13:32:29;3.65;;;1.65;;
28481;SDS011;15703;49.588;6.260;2023-06-04T13:34:51;2.58;;;1.75;;
28481;SDS011;15703;49.588;6.260;2023-06-04T13:37:14;2.17;;;1.60;;
28481;SDS011;15703;49.588;6.260;2023-06-04T13:39:36;2.33;;;1.60;;
28481;SDS011;15703;49.588;6.260;2023-06-04T13:41:58;1.23;;;1.13;;
28481;SDS011;15703;49.588;6.260;2023-06-04T13:44:21;4.40;;;1.48;;
28481;SDS011;15703;49.588;6.260;2023-06-04T13:46:47;2.72;;;1.50;;
28481;SDS011;15703;49.588;6.260;2023-06-04T13:49:10;3.67;;;1.45;;
28481;SDS011;15703;49.588;6.260;2023-06-04T13:51:32;3.17;;;1.85;;
28481;SDS011;15703;49.588;6.260;2023-06-04T13:53:54;5.60;;;1.70;;
28481;SDS011;15703;49.588;6.260;2023-06-04T13:56:16;2.75;;;1.55;;
28481;SDS011;15703;49.588;6.260;2023-06-04T13:58:39;2.30;;;1.52;;
28481;SDS011;15703;49.588;6.260;2023-06-04T14:01:01;4.80;;;1.70;;
28481;SDS011;15703;49.588;6.260;2023-06-04T14:03:23;2.42;;;1.63;;
28481;SDS011;15703;49.588;6.260;2023-06-04T14:05:46;3.33;;;1.70;;
28481;SDS011;15703;49.588;6.260;2023-06-04T14:08:09;1.17;;;1.08;;
28481;SDS011;15703;49.588;6.260;2023-06-04T14:10:33;2.45;;;1.60;;
28481;SDS011;15703;49.588;6.260;2023-06-04T14:12:57;3.30;;;1.60;;
28481;SDS011;15703;49.588;6.260;2023-06-04T14:15:19;2.22;;;1.60;;
28481;SDS011;15703;49.588;6.260;2023-06-04T14:17:42;2.25;;;1.80;;
28481;SDS011;15703;49.588;6.260;2023-06-04T14:20:04;2.92;;;1.77;;
28481;SDS011;15703;49.588;6.260;2023-06-04T14:22:31;2.28;;;2.00;;
28481;SDS011;15703;49.588;6.260;2023-06-04T14:24:53;3.13;;;1.75;;
28481;SDS011;15703;49.588;6.260;2023-06-04T14:27:16;5.85;;;1.85;;
28481;SDS011;15703;49.588;6.260;2023-06-04T14:29:38;2.25;;;1.60;;
28481;SDS011;15703;49.588;6.260;2023-06-04T14:32:01;2.10;;;1.50;;
28481;SDS011;15703;49.588;6.260;2023-06-04T14:34:24;1.58;;;1.33;;